sensor_id;sensor_type;location;lat;lon;timestamp;temperature;humidity
5683;DHT22;2864;49.220;8.654;2023-09-12T00:00:56;20.10;99.90
5683;DHT22;2864;49.220;8.654;2023-09-12T00:03:22;18.90;99.90
5683;DHT22;2864;49.220;8.654;2023-09-12T00:05:53;18.90;99.90
5683;DHT22;2864;49.220;8.654;2023-09-12T00:08:18;19.40;99.90
5683;DHT22;2864;49.220;8.654;2023-09-12T00:10:44;18.80;99.90
5683;DHT22;2864;49.220;8.654;2023-09-12T00:13:10;18.70;99.90
5683;DHT22;2864;49.220;8.654;2023-09-12T00:15:35;18.60;99.90
5683;DHT22;2864;49.220;8.654;2023-09-12T00:18:01;18.50;99.90
5683;DHT22;2864;49.220;8.654;2023-09-12T00:20:26;18.40;99.90
5683;DHT22;2864;49.220;8.654;2023-09-12T00:22:52;18.40;99.90
5683;DHT22;2864;49.220;8.654;2023-09-12T00:25:22;18.30;99.90
5683;DHT22;2864;49.220;8.654;2023-09-12T00:27:48;18.30;99.90
5683;DHT22;2864;49.220;8.654;2023-09-12T00:30:14;18.30;99.90
5683;DHT22;2864;49.220;8.654;2023-09-12T00:32:40;18.30;99.90
5683;DHT22;2864;49.220;8.654;2023-09-12T00:35:06;18.30;99.90
5683;DHT22;2864;49.220;8.654;2023-09-12T00:37:32;18.20;99.90
5683;DHT22;2864;49.220;8.654;2023-09-12T00:39:58;18.10;99.90
5683;DHT22;2864;49.220;8.654;2023-09-12T00:42:26;18.20;99.90
5683;DHT22;2864;49.220;8.654;2023-09-12T00:44:52;18.10;99.90
5683;DHT22;2864;49.220;8.654;2023-09-12T00:47:18;19.50;99.90
5683;DHT22;2864;49.220;8.654;2023-09-12T00:49:46;18.60;99.90
5683;DHT22;2864;49.220;8.654;2023-09-12T00:52:12;18.10;99.90
5683;DHT22;2864;49.220;8.654;2023-09-12T00:54:39;19.50;99.90
5683;DHT22;2864;49.220;8.654;2023-09-12T00:57:05;19.20;99.90
5683;DHT22;2864;49.220;8.654;2023-09-12T00:59:30;19.90;99.90
5683;DHT22;2864;49.220;8.654;2023-09-12T01:01:56;18.20;99.90
5683;DHT22;2864;49.220;8.654;2023-09-12T01:04:22;18.20;99.90
5683;DHT22;2864;49.220;8.654;2023-09-12T01:06:48;18.20;99.90
5683;DHT22;2864;49.220;8.654;2023-09-12T01:09:14;18.10;99.90
5683;DHT22;2864;49.220;8.654;2023-09-12T01:11:40;18.40;99.90
5683;DHT22;2864;49.220;8.654;2023-09-12T01:14:05;18.10;99.90
5683;DHT22;2864;49.220;8.654;2023-09-12T01:19:54;18.10;99.90
5683;DHT22;2864;49.220;8.654;2023-09-12T01:27:42;18.10;99.90
5683;DHT22;2864;49.220;8.654;2023-09-12T01:30:10;18.10;99.90
5683;DHT22;2864;49.220;8.654;2023-09-12T01:32:36;18.10;99.90
5683;DHT22;2864;49.220;8.654;2023-09-12T01:35:03;18.00;99.90
5683;DHT22;2864;49.220;8.654;2023-09-12T01:37:30;18.00;99.90
5683;DHT22;2864;49.220;8.654;2023-09-12T01:39:56;18.10;99.90
5683;DHT22;2864;49.220;8.654;2023-09-12T01:42:22;18.10;99.90
5683;DHT22;2864;49.220;8.654;2023-09-12T01:44:50;18.10;99.90
5683;DHT22;2864;49.220;8.654;2023-09-12T01:47:21;19.70;99.90
5683;DHT22;2864;49.220;8.654;2023-09-12T01:49:51;18.10;99.90
5683;DHT22;2864;49.220;8.654;2023-09-12T01:52:17;18.10;99.90
5683;DHT22;2864;49.220;8.654;2023-09-12T01:54:44;18.10;99.90
5683;DHT22;2864;49.220;8.654;2023-09-12T01:57:10;18.00;99.90
5683;DHT22;2864;49.220;8.654;2023-09-12T01:59:36;18.10;99.90
5683;DHT22;2864;49.220;8.654;2023-09-12T02:02:02;18.10;99.90
5683;DHT22;2864;49.220;8.654;2023-09-12T02:04:27;18.10;99.90
5683;DHT22;2864;49.220;8.654;2023-09-12T02:06:53;18.10;99.90
5683;DHT22;2864;49.220;8.654;2023-09-12T02:09:18;18.10;99.90
5683;DHT22;2864;49.220;8.654;2023-09-12T02:11:44;18.10;99.90
5683;DHT22;2864;49.220;8.654;2023-09-12T02:14:10;19.70;99.90
5683;DHT22;2864;49.220;8.654;2023-09-12T02:16:38;18.10;99.90
5683;DHT22;2864;49.220;8.654;2023-09-12T02:19:05;18.00;99.90
5683;DHT22;2864;49.220;8.654;2023-09-12T02:21:31;18.00;99.90
5683;DHT22;2864;49.220;8.654;2023-09-12T02:23:56;18.00;99.90
5683;DHT22;2864;49.220;8.654;2023-09-12T02:26:22;18.00;99.90
5683;DHT22;2864;49.220;8.654;2023-09-12T02:28:47;18.10;99.90
5683;DHT22;2864;49.220;8.654;2023-09-12T02:31:13;18.10;99.90
5683;DHT22;2864;49.220;8.654;2023-09-12T02:33:39;18.10;99.90
5683;DHT22;2864;49.220;8.654;2023-09-12T02:36:05;18.10;99.90
5683;DHT22;2864;49.220;8.654;2023-09-12T02:38:31;18.10;99.90
5683;DHT22;2864;49.220;8.654;2023-09-12T02:40:57;18.00;99.90
5683;DHT22;2864;49.220;8.654;2023-09-12T02:43:23;18.00;99.90
5683;DHT22;2864;49.220;8.654;2023-09-12T02:45:49;18.00;99.90
5683;DHT22;2864;49.220;8.654;2023-09-12T02:48:14;18.10;99.90
5683;DHT22;2864;49.220;8.654;2023-09-12T02:50:40;18.00;99.90
5683;DHT22;2864;49.220;8.654;2023-09-12T02:53:05;18.00;99.90
5683;DHT22;2864;49.220;8.654;2023-09-12T02:55:32;18.00;99.90
5683;DHT22;2864;49.220;8.654;2023-09-12T02:57:57;18.00;99.90
5683;DHT22;2864;49.220;8.654;2023-09-12T03:00:23;18.00;99.90
5683;DHT22;2864;49.220;8.654;2023-09-12T03:02:49;18.00;99.90
5683;DHT22;2864;49.220;8.654;2023-09-12T03:05:14;17.90;99.90
5683;DHT22;2864;49.220;8.654;2023-09-12T03:07:40;17.90;99.90
5683;DHT22;2864;49.220;8.654;2023-09-12T03:10:06;17.70;99.90
5683;DHT22;2864;49.220;8.654;2023-09-12T03:12:31;18.00;99.90
5683;DHT22;2864;49.220;8.654;2023-09-12T03:14:57;18.00;99.90
5683;DHT22;2864;49.220;8.654;2023-09-12T03:17:23;18.00;99.90
5683;DHT22;2864;49.220;8.654;2023-09-12T03:19:48;18.00;99.90
5683;DHT22;2864;49.220;8.654;2023-09-12T03:22:14;19.20;99.90
5683;DHT22;2864;49.220;8.654;2023-09-12T03:24:40;18.10;99.90
5683;DHT22;2864;49.220;8.654;2023-09-12T03:27:06;18.20;99.90
5683;DHT22;2864;49.220;8.654;2023-09-12T03:29:31;18.20;99.90
5683;DHT22;2864;49.220;8.654;2023-09-12T03:31:57;19.10;99.90
5683;DHT22;2864;49.220;8.654;2023-09-12T03:34:22;18.50;99.90
5683;DHT22;2864;49.220;8.654;2023-09-12T03:36:48;18.30;99.90
5683;DHT22;2864;49.220;8.654;2023-09-12T03:39:14;18.40;99.90
5683;DHT22;2864;49.220;8.654;2023-09-12T03:41:40;19.00;99.90
5683;DHT22;2864;49.220;8.654;2023-09-12T03:44:06;18.80;99.90
5683;DHT22;2864;49.220;8.654;2023-09-12T03:46:31;18.50;99.90
5683;DHT22;2864;49.220;8.654;2023-09-12T03:48:57;18.50;99.90
5683;DHT22;2864;49.220;8.654;2023-09-12T03:51:22;18.50;99.90
5683;DHT22;2864;49.220;8.654;2023-09-12T03:53:48;18.40;99.90
5683;DHT22;2864;49.220;8.654;2023-09-12T03:56:15;18.30;99.90
5683;DHT22;2864;49.220;8.654;2023-09-12T03:58:41;18.20;99.90
5683;DHT22;2864;49.220;8.654;2023-09-12T04:01:07;18.20;99.90
5683;DHT22;2864;49.220;8.654;2023-09-12T04:03:32;19.80;99.90
5683;DHT22;2864;49.220;8.654;2023-09-12T04:05:58;18.10;99.90
5683;DHT22;2864;49.220;8.654;2023-09-12T04:08:23;18.10;99.90
5683;DHT22;2864;49.220;8.654;2023-09-12T04:10:49;18.10;99.90
5683;DHT22;2864;49.220;8.654;2023-09-12T04:13:15;18.10;99.90
5683;DHT22;2864;49.220;8.654;2023-09-12T04:15:40;18.00;99.90
5683;DHT22;2864;49.220;8.654;2023-09-12T04:18:06;18.10;99.90
5683;DHT22;2864;49.220;8.654;2023-09-12T04:20:32;18.00;99.90
5683;DHT22;2864;49.220;8.654;2023-09-12T04:22:59;20.20;99.90
5683;DHT22;2864;49.220;8.654;2023-09-12T04:25:25;18.00;99.90
5683;DHT22;2864;49.220;8.654;2023-09-12T04:27:50;18.10;99.90
5683;DHT22;2864;49.220;8.654;2023-09-12T04:30:16;18.10;99.90
5683;DHT22;2864;49.220;8.654;2023-09-12T04:32:42;18.10;99.90
5683;DHT22;2864;49.220;8.654;2023-09-12T04:35:08;18.10;99.90
5683;DHT22;2864;49.220;8.654;2023-09-12T04:37:33;18.10;99.90
5683;DHT22;2864;49.220;8.654;2023-09-12T04:39:59;18.10;99.90
5683;DHT22;2864;49.220;8.654;2023-09-12T04:42:24;18.00;99.90
5683;DHT22;2864;49.220;8.654;2023-09-12T04:44:50;19.30;99.90
5683;DHT22;2864;49.220;8.654;2023-09-12T04:47:15;18.10;99.90
5683;DHT22;2864;49.220;8.654;2023-09-12T04:49:43;18.10;99.90
5683;DHT22;2864;49.220;8.654;2023-09-12T04:52:08;18.10;99.90
5683;DHT22;2864;49.220;8.654;2023-09-12T04:54:34;19.00;99.90
5683;DHT22;2864;49.220;8.654;2023-09-12T04:57:00;18.20;99.90
5683;DHT22;2864;49.220;8.654;2023-09-12T04:59:25;18.20;99.90
5683;DHT22;2864;49.220;8.654;2023-09-12T05:01:51;19.10;99.90
5683;DHT22;2864;49.220;8.654;2023-09-12T05:04:16;18.60;99.90
5683;DHT22;2864;49.220;8.654;2023-09-12T05:06:42;18.30;99.90
5683;DHT22;2864;49.220;8.654;2023-09-12T05:09:07;18.30;99.90
5683;DHT22;2864;49.220;8.654;2023-09-12T05:11:34;18.40;99.90
5683;DHT22;2864;49.220;8.654;2023-09-12T05:14:00;18.40;99.90
5683;DHT22;2864;49.220;8.654;2023-09-12T05:16:28;19.80;99.90
5683;DHT22;2864;49.220;8.654;2023-09-12T05:18:54;18.50;99.90
5683;DHT22;2864;49.220;8.654;2023-09-12T05:21:20;18.50;99.90
5683;DHT22;2864;49.220;8.654;2023-09-12T05:23:46;18.50;99.90
5683;DHT22;2864;49.220;8.654;2023-09-12T05:26:11;19.50;99.90
5683;DHT22;2864;49.220;8.654;2023-09-12T05:28:37;18.60;99.90
5683;DHT22;2864;49.220;8.654;2023-09-12T05:31:02;18.50;99.90
5683;DHT22;2864;49.220;8.654;2023-09-12T05:33:28;18.50;99.90
5683;DHT22;2864;49.220;8.654;2023-09-12T05:35:53;18.50;99.90
5683;DHT22;2864;49.220;8.654;2023-09-12T05:38:19;18.60;99.90
5683;DHT22;2864;49.220;8.654;2023-09-12T05:40:44;18.60;99.90
5683;DHT22;2864;49.220;8.654;2023-09-12T05:43:10;18.70;99.90
5683;DHT22;2864;49.220;8.654;2023-09-12T05:45:36;18.70;99.90
5683;DHT22;2864;49.220;8.654;2023-09-12T05:48:01;20.50;99.90
5683;DHT22;2864;49.220;8.654;2023-09-12T05:50:28;18.70;99.90
5683;DHT22;2864;49.220;8.654;2023-09-12T05:52:54;18.70;99.90
5683;DHT22;2864;49.220;8.654;2023-09-12T05:55:19;18.70;99.90
5683;DHT22;2864;49.220;8.654;2023-09-12T05:57:45;18.70;99.90
5683;DHT22;2864;49.220;8.654;2023-09-12T06:00:13;18.70;99.90
5683;DHT22;2864;49.220;8.654;2023-09-12T06:02:40;18.70;99.90
5683;DHT22;2864;49.220;8.654;2023-09-12T06:05:07;18.70;99.90
5683;DHT22;2864;49.220;8.654;2023-09-12T06:07:34;18.60;99.90
5683;DHT22;2864;49.220;8.654;2023-09-12T06:09:59;18.60;99.90
5683;DHT22;2864;49.220;8.654;2023-09-12T06:12:25;18.60;99.90
5683;DHT22;2864;49.220;8.654;2023-09-12T06:14:51;18.50;99.90
5683;DHT22;2864;49.220;8.654;2023-09-12T06:17:18;20.20;99.90
5683;DHT22;2864;49.220;8.654;2023-09-12T06:19:44;20.90;99.90
5683;DHT22;2864;49.220;8.654;2023-09-12T06:22:09;20.00;99.90
5683;DHT22;2864;49.220;8.654;2023-09-12T06:24:35;22.10;99.90
5683;DHT22;2864;49.220;8.654;2023-09-12T06:27:01;18.60;99.90
5683;DHT22;2864;49.220;8.654;2023-09-12T06:29:27;18.60;99.90
5683;DHT22;2864;49.220;8.654;2023-09-12T06:31:52;20.60;99.90
5683;DHT22;2864;49.220;8.654;2023-09-12T06:34:20;18.70;99.90
5683;DHT22;2864;49.220;8.654;2023-09-12T06:36:45;20.30;99.90
5683;DHT22;2864;49.220;8.654;2023-09-12T06:39:11;20.20;99.90
5683;DHT22;2864;49.220;8.654;2023-09-12T06:41:36;22.30;99.90
5683;DHT22;2864;49.220;8.654;2023-09-12T06:44:02;19.50;99.90
5683;DHT22;2864;49.220;8.654;2023-09-12T06:46:29;19.70;99.90
5683;DHT22;2864;49.220;8.654;2023-09-12T06:48:55;19.90;99.90
5683;DHT22;2864;49.220;8.654;2023-09-12T06:51:24;20.10;99.90
5683;DHT22;2864;49.220;8.654;2023-09-12T06:53:51;20.30;99.90
5683;DHT22;2864;49.220;8.654;2023-09-12T06:56:19;22.70;99.90
5683;DHT22;2864;49.220;8.654;2023-09-12T06:58:44;20.70;99.90
5683;DHT22;2864;49.220;8.654;2023-09-12T07:01:10;22.60;99.90
5683;DHT22;2864;49.220;8.654;2023-09-12T07:03:36;21.50;99.90
5683;DHT22;2864;49.220;8.654;2023-09-12T07:06:02;22.90;99.90
5683;DHT22;2864;49.220;8.654;2023-09-12T07:08:31;21.20;99.90
5683;DHT22;2864;49.220;8.654;2023-09-12T07:10:57;21.50;99.90
5683;DHT22;2864;49.220;8.654;2023-09-12T07:13:24;22.30;99.90
5683;DHT22;2864;49.220;8.654;2023-09-12T07:15:51;21.50;99.90
5683;DHT22;2864;49.220;8.654;2023-09-12T07:18:17;22.50;99.90
5683;DHT22;2864;49.220;8.654;2023-09-12T07:20:45;21.70;99.90
5683;DHT22;2864;49.220;8.654;2023-09-12T07:23:11;21.80;99.90
5683;DHT22;2864;49.220;8.654;2023-09-12T07:25:38;22.00;99.90
5683;DHT22;2864;49.220;8.654;2023-09-12T07:28:05;22.10;99.90
5683;DHT22;2864;49.220;8.654;2023-09-12T07:30:30;22.10;99.90
5683;DHT22;2864;49.220;8.654;2023-09-12T07:32:56;22.20;99.90
5683;DHT22;2864;49.220;8.654;2023-09-12T07:35:21;22.40;99.90
5683;DHT22;2864;49.220;8.654;2023-09-12T07:37:49;22.60;99.90
5683;DHT22;2864;49.220;8.654;2023-09-12T07:40:15;22.50;99.90
5683;DHT22;2864;49.220;8.654;2023-09-12T07:42:41;22.70;99.90
5683;DHT22;2864;49.220;8.654;2023-09-12T07:45:07;23.20;99.90
5683;DHT22;2864;49.220;8.654;2023-09-12T07:47:33;22.90;99.90
5683;DHT22;2864;49.220;8.654;2023-09-12T07:49:59;23.10;99.90
5683;DHT22;2864;49.220;8.654;2023-09-12T07:52:26;23.10;99.90
5683;DHT22;2864;49.220;8.654;2023-09-12T07:54:52;23.30;99.90
5683;DHT22;2864;49.220;8.654;2023-09-12T07:57:22;23.30;99.90
5683;DHT22;2864;49.220;8.654;2023-09-12T07:59:48;23.80;99.90
5683;DHT22;2864;49.220;8.654;2023-09-12T08:02:14;23.50;99.90
5683;DHT22;2864;49.220;8.654;2023-09-12T08:04:39;23.50;99.90
5683;DHT22;2864;49.220;8.654;2023-09-12T08:07:05;23.60;99.90
5683;DHT22;2864;49.220;8.654;2023-09-12T08:09:53;23.60;99.90
5683;DHT22;2864;49.220;8.654;2023-09-12T08:12:20;23.60;99.90
5683;DHT22;2864;49.220;8.654;2023-09-12T08:14:46;23.80;99.90
5683;DHT22;2864;49.220;8.654;2023-09-12T08:17:12;24.10;99.90
5683;DHT22;2864;49.220;8.654;2023-09-12T08:19:38;24.00;99.90
5683;DHT22;2864;49.220;8.654;2023-09-12T08:22:05;24.10;99.90
5683;DHT22;2864;49.220;8.654;2023-09-12T08:24:31;24.20;99.90
5683;DHT22;2864;49.220;8.654;2023-09-12T08:26:56;24.30;99.90
5683;DHT22;2864;49.220;8.654;2023-09-12T08:29:22;24.20;99.90
5683;DHT22;2864;49.220;8.654;2023-09-12T08:31:47;24.40;99.90
5683;DHT22;2864;49.220;8.654;2023-09-12T08:34:13;24.40;99.90
5683;DHT22;2864;49.220;8.654;2023-09-12T08:36:39;24.40;99.90
5683;DHT22;2864;49.220;8.654;2023-09-12T08:39:05;24.60;99.90
5683;DHT22;2864;49.220;8.654;2023-09-12T08:41:33;24.70;99.90
5683;DHT22;2864;49.220;8.654;2023-09-12T08:44:01;24.90;99.90
5683;DHT22;2864;49.220;8.654;2023-09-12T08:46:27;25.00;99.90
5683;DHT22;2864;49.220;8.654;2023-09-12T08:48:55;25.00;99.90
5683;DHT22;2864;49.220;8.654;2023-09-12T08:51:22;25.10;99.90
5683;DHT22;2864;49.220;8.654;2023-09-12T08:53:49;25.20;99.90
5683;DHT22;2864;49.220;8.654;2023-09-12T08:56:15;25.70;99.80
5683;DHT22;2864;49.220;8.654;2023-09-12T08:58:41;25.50;99.40
5683;DHT22;2864;49.220;8.654;2023-09-12T09:01:10;25.60;98.90
5683;DHT22;2864;49.220;8.654;2023-09-12T09:03:39;25.70;98.20
5683;DHT22;2864;49.220;8.654;2023-09-12T09:06:06;25.80;97.90
5683;DHT22;2864;49.220;8.654;2023-09-12T09:08:33;25.00;97.20
5683;DHT22;2864;49.220;8.654;2023-09-12T09:11:00;25.80;97.50
5683;DHT22;2864;49.220;8.654;2023-09-12T09:13:31;26.20;97.40
5683;DHT22;2864;49.220;8.654;2023-09-12T09:16:13;26.30;97.40
5683;DHT22;2864;49.220;8.654;2023-09-12T09:21:41;26.50;96.30
5683;DHT22;2864;49.220;8.654;2023-09-12T09:24:09;26.60;96.40
5683;DHT22;2864;49.220;8.654;2023-09-12T09:29:15;26.80;95.90
5683;DHT22;2864;49.220;8.654;2023-09-12T09:31:43;26.90;95.70
5683;DHT22;2864;49.220;8.654;2023-09-12T09:34:13;27.00;95.40
5683;DHT22;2864;49.220;8.654;2023-09-12T09:36:43;27.10;95.20
5683;DHT22;2864;49.220;8.654;2023-09-12T09:39:10;27.20;94.80
5683;DHT22;2864;49.220;8.654;2023-09-12T09:41:37;27.40;94.40
5683;DHT22;2864;49.220;8.654;2023-09-12T09:44:07;27.60;94.30
5683;DHT22;2864;49.220;8.654;2023-09-12T09:46:34;27.70;94.00
5683;DHT22;2864;49.220;8.654;2023-09-12T09:49:00;27.80;94.10
5683;DHT22;2864;49.220;8.654;2023-09-12T09:51:26;28.00;93.30
5683;DHT22;2864;49.220;8.654;2023-09-12T09:53:52;28.20;92.70
5683;DHT22;2864;49.220;8.654;2023-09-12T09:56:18;28.20;92.70
5683;DHT22;2864;49.220;8.654;2023-09-12T09:58:52;28.40;92.00
5683;DHT22;2864;49.220;8.654;2023-09-12T10:01:22;28.30;91.90
5683;DHT22;2864;49.220;8.654;2023-09-12T10:03:52;28.60;91.10
5683;DHT22;2864;49.220;8.654;2023-09-12T10:06:19;29.00;91.10
5683;DHT22;2864;49.220;8.654;2023-09-12T10:08:50;27.90;88.30
5683;DHT22;2864;49.220;8.654;2023-09-12T10:11:16;29.10;87.90
5683;DHT22;2864;49.220;8.654;2023-09-12T10:13:49;28.90;86.90
5683;DHT22;2864;49.220;8.654;2023-09-12T10:16:17;28.90;87.60
5683;DHT22;2864;49.220;8.654;2023-09-12T10:19:16;28.40;88.50
5683;DHT22;2864;49.220;8.654;2023-09-12T10:24:22;28.30;88.20
5683;DHT22;2864;49.220;8.654;2023-09-12T10:26:50;28.40;84.70
5683;DHT22;2864;49.220;8.654;2023-09-12T10:29:15;28.60;83.10
5683;DHT22;2864;49.220;8.654;2023-09-12T10:31:41;28.50;81.90
5683;DHT22;2864;49.220;8.654;2023-09-12T10:34:08;28.60;82.70
5683;DHT22;2864;49.220;8.654;2023-09-12T10:36:42;28.50;83.20
5683;DHT22;2864;49.220;8.654;2023-09-12T10:39:09;28.50;85.30
5683;DHT22;2864;49.220;8.654;2023-09-12T10:41:38;28.50;86.30
5683;DHT22;2864;49.220;8.654;2023-09-12T10:44:10;28.80;85.50
5683;DHT22;2864;49.220;8.654;2023-09-12T10:46:38;28.80;85.30
5683;DHT22;2864;49.220;8.654;2023-09-12T10:49:12;29.00;85.90
5683;DHT22;2864;49.220;8.654;2023-09-12T10:51:43;29.20;83.90
5683;DHT22;2864;49.220;8.654;2023-09-12T10:54:14;29.40;85.40
5683;DHT22;2864;49.220;8.654;2023-09-12T10:56:40;29.50;84.70
5683;DHT22;2864;49.220;8.654;2023-09-12T11:01:44;29.50;84.70
5683;DHT22;2864;49.220;8.654;2023-09-12T11:06:44;29.50;81.60
5683;DHT22;2864;49.220;8.654;2023-09-12T11:09:18;29.50;82.30
5683;DHT22;2864;49.220;8.654;2023-09-12T11:11:48;29.60;81.30
5683;DHT22;2864;49.220;8.654;2023-09-12T11:14:15;29.80;81.30
5683;DHT22;2864;49.220;8.654;2023-09-12T11:16:42;29.70;80.90
5683;DHT22;2864;49.220;8.654;2023-09-12T11:19:19;30.00;79.90
5683;DHT22;2864;49.220;8.654;2023-09-12T11:21:54;30.30;80.10
5683;DHT22;2864;49.220;8.654;2023-09-12T11:24:21;29.90;79.10
5683;DHT22;2864;49.220;8.654;2023-09-12T11:26:57;30.20;79.10
5683;DHT22;2864;49.220;8.654;2023-09-12T11:29:37;30.40;78.10
5683;DHT22;2864;49.220;8.654;2023-09-12T11:32:03;30.40;77.80
5683;DHT22;2864;49.220;8.654;2023-09-12T11:34:37;30.50;78.20
5683;DHT22;2864;49.220;8.654;2023-09-12T11:37:03;30.80;77.20
5683;DHT22;2864;49.220;8.654;2023-09-12T11:39:32;30.90;75.90
5683;DHT22;2864;49.220;8.654;2023-09-12T11:42:00;31.00;75.10
5683;DHT22;2864;49.220;8.654;2023-09-12T11:44:26;31.00;74.70
5683;DHT22;2864;49.220;8.654;2023-09-12T11:46:52;31.10;75.20
5683;DHT22;2864;49.220;8.654;2023-09-12T11:49:19;30.90;72.80
5683;DHT22;2864;49.220;8.654;2023-09-12T11:51:49;31.00;73.70
5683;DHT22;2864;49.220;8.654;2023-09-12T11:54:19;30.80;73.30
5683;DHT22;2864;49.220;8.654;2023-09-12T11:56:48;31.20;73.20
5683;DHT22;2864;49.220;8.654;2023-09-12T11:59:15;31.40;73.20
5683;DHT22;2864;49.220;8.654;2023-09-12T12:01:44;31.90;74.50
5683;DHT22;2864;49.220;8.654;2023-09-12T12:04:10;32.30;74.00
5683;DHT22;2864;49.220;8.654;2023-09-12T12:06:36;32.30;73.10
5683;DHT22;2864;49.220;8.654;2023-09-12T12:09:02;32.20;70.60
5683;DHT22;2864;49.220;8.654;2023-09-12T12:11:28;32.10;71.10
5683;DHT22;2864;49.220;8.654;2023-09-12T12:13:54;32.60;72.00
5683;DHT22;2864;49.220;8.654;2023-09-12T12:16:19;32.80;68.30
5683;DHT22;2864;49.220;8.654;2023-09-12T12:18:45;32.90;69.60
5683;DHT22;2864;49.220;8.654;2023-09-12T12:21:11;33.00;65.60
5683;DHT22;2864;49.220;8.654;2023-09-12T12:23:36;32.80;64.40
5683;DHT22;2864;49.220;8.654;2023-09-12T12:26:08;32.80;65.10
5683;DHT22;2864;49.220;8.654;2023-09-12T12:28:35;33.40;67.10
5683;DHT22;2864;49.220;8.654;2023-09-12T12:31:01;33.00;64.60
5683;DHT22;2864;49.220;8.654;2023-09-12T12:33:27;33.30;64.20
5683;DHT22;2864;49.220;8.654;2023-09-12T12:36:03;33.10;63.90
5683;DHT22;2864;49.220;8.654;2023-09-12T12:38:34;32.90;63.80
5683;DHT22;2864;49.220;8.654;2023-09-12T12:41:00;33.40;64.20
5683;DHT22;2864;49.220;8.654;2023-09-12T12:43:26;33.50;63.90
5683;DHT22;2864;49.220;8.654;2023-09-12T12:45:56;33.70;63.10
5683;DHT22;2864;49.220;8.654;2023-09-12T12:48:35;34.50;63.70
5683;DHT22;2864;49.220;8.654;2023-09-12T12:51:14;35.80;63.10
5683;DHT22;2864;49.220;8.654;2023-09-12T12:53:43;35.10;61.60
5683;DHT22;2864;49.220;8.654;2023-09-12T12:56:15;35.40;60.90
5683;DHT22;2864;49.220;8.654;2023-09-12T12:58:46;35.70;60.30
5683;DHT22;2864;49.220;8.654;2023-09-12T13:01:12;36.20;60.60
5683;DHT22;2864;49.220;8.654;2023-09-12T13:03:37;36.30;59.60
5683;DHT22;2864;49.220;8.654;2023-09-12T13:06:03;36.60;59.70
5683;DHT22;2864;49.220;8.654;2023-09-12T13:08:28;37.40;59.30
5683;DHT22;2864;49.220;8.654;2023-09-12T13:10:54;37.40;58.50
5683;DHT22;2864;49.220;8.654;2023-09-12T13:13:20;37.70;57.90
5683;DHT22;2864;49.220;8.654;2023-09-12T13:15:46;37.70;57.30
5683;DHT22;2864;49.220;8.654;2023-09-12T13:18:11;37.60;58.30
5683;DHT22;2864;49.220;8.654;2023-09-12T13:20:37;37.90;57.70
5683;DHT22;2864;49.220;8.654;2023-09-12T13:23:03;37.20;57.40
5683;DHT22;2864;49.220;8.654;2023-09-12T13:25:28;36.80;58.00
5683;DHT22;2864;49.220;8.654;2023-09-12T13:27:54;37.40;57.40
5683;DHT22;2864;49.220;8.654;2023-09-12T13:30:19;38.30;57.70
5683;DHT22;2864;49.220;8.654;2023-09-12T13:32:45;38.90;56.10
5683;DHT22;2864;49.220;8.654;2023-09-12T13:35:11;38.80;56.20
5683;DHT22;2864;49.220;8.654;2023-09-12T13:37:37;38.70;56.20
5683;DHT22;2864;49.220;8.654;2023-09-12T13:40:02;39.10;56.20
5683;DHT22;2864;49.220;8.654;2023-09-12T13:42:28;39.60;56.40
5683;DHT22;2864;49.220;8.654;2023-09-12T13:44:56;39.40;56.20
5683;DHT22;2864;49.220;8.654;2023-09-12T13:47:21;39.80;54.80
5683;DHT22;2864;49.220;8.654;2023-09-12T13:49:51;39.40;54.70
5683;DHT22;2864;49.220;8.654;2023-09-12T13:52:22;39.40;54.50
5683;DHT22;2864;49.220;8.654;2023-09-12T13:54:48;40.00;54.90
5683;DHT22;2864;49.220;8.654;2023-09-12T13:57:15;40.20;53.60
5683;DHT22;2864;49.220;8.654;2023-09-12T13:59:40;40.10;54.00
5683;DHT22;2864;49.220;8.654;2023-09-12T14:02:06;40.50;54.10
5683;DHT22;2864;49.220;8.654;2023-09-12T14:04:31;40.70;53.30
5683;DHT22;2864;49.220;8.654;2023-09-12T14:06:57;41.20;53.30
5683;DHT22;2864;49.220;8.654;2023-09-12T14:09:22;40.20;53.30
5683;DHT22;2864;49.220;8.654;2023-09-12T14:11:48;39.10;54.70
5683;DHT22;2864;49.220;8.654;2023-09-12T14:14:13;38.70;54.60
5683;DHT22;2864;49.220;8.654;2023-09-12T14:16:39;39.20;54.20
5683;DHT22;2864;49.220;8.654;2023-09-12T14:19:04;39.00;54.10
5683;DHT22;2864;49.220;8.654;2023-09-12T14:21:30;38.60;54.10
5683;DHT22;2864;49.220;8.654;2023-09-12T14:23:57;39.70;53.60
5683;DHT22;2864;49.220;8.654;2023-09-12T14:26:22;39.30;53.60
5683;DHT22;2864;49.220;8.654;2023-09-12T14:28:48;38.30;54.10
5683;DHT22;2864;49.220;8.654;2023-09-12T14:31:13;37.40;55.00
5683;DHT22;2864;49.220;8.654;2023-09-12T14:33:43;37.30;54.70
5683;DHT22;2864;49.220;8.654;2023-09-12T14:36:09;37.00;54.90
5683;DHT22;2864;49.220;8.654;2023-09-12T14:38:35;37.10;55.70
5683;DHT22;2864;49.220;8.654;2023-09-12T14:41:01;37.80;55.20
5683;DHT22;2864;49.220;8.654;2023-09-12T14:43:26;38.30;55.90
5683;DHT22;2864;49.220;8.654;2023-09-12T14:45:54;38.90;53.80
5683;DHT22;2864;49.220;8.654;2023-09-12T14:48:20;38.90;54.40
5683;DHT22;2864;49.220;8.654;2023-09-12T14:50:45;39.60;53.80
5683;DHT22;2864;49.220;8.654;2023-09-12T14:53:15;40.70;53.20
5683;DHT22;2864;49.220;8.654;2023-09-12T14:55:41;41.50;53.00
5683;DHT22;2864;49.220;8.654;2023-09-12T14:58:07;41.30;52.20
5683;DHT22;2864;49.220;8.654;2023-09-12T15:00:33;40.80;52.00
5683;DHT22;2864;49.220;8.654;2023-09-12T15:03:00;40.70;51.90
5683;DHT22;2864;49.220;8.654;2023-09-12T15:05:25;39.90;52.40
5683;DHT22;2864;49.220;8.654;2023-09-12T15:07:51;40.60;52.30
5683;DHT22;2864;49.220;8.654;2023-09-12T15:10:17;41.30;51.80
5683;DHT22;2864;49.220;8.654;2023-09-12T15:12:43;41.10;51.70
5683;DHT22;2864;49.220;8.654;2023-09-12T15:15:09;41.10;51.60
5683;DHT22;2864;49.220;8.654;2023-09-12T15:17:34;41.50;51.60
5683;DHT22;2864;49.220;8.654;2023-09-12T15:20:00;42.10;51.40
5683;DHT22;2864;49.220;8.654;2023-09-12T15:22:26;42.60;52.10
5683;DHT22;2864;49.220;8.654;2023-09-12T15:24:52;43.00;51.00
5683;DHT22;2864;49.220;8.654;2023-09-12T15:27:17;42.40;51.30
5683;DHT22;2864;49.220;8.654;2023-09-12T15:29:43;42.60;50.70
5683;DHT22;2864;49.220;8.654;2023-09-12T15:32:08;41.80;50.90
5683;DHT22;2864;49.220;8.654;2023-09-12T15:34:34;41.80;51.80
5683;DHT22;2864;49.220;8.654;2023-09-12T15:37:13;42.00;50.90
5683;DHT22;2864;49.220;8.654;2023-09-12T15:39:38;42.90;50.30
5683;DHT22;2864;49.220;8.654;2023-09-12T15:42:05;43.10;50.20
5683;DHT22;2864;49.220;8.654;2023-09-12T15:44:31;42.40;50.50
5683;DHT22;2864;49.220;8.654;2023-09-12T15:46:57;42.40;50.70
5683;DHT22;2864;49.220;8.654;2023-09-12T15:49:24;42.50;52.00
5683;DHT22;2864;49.220;8.654;2023-09-12T15:51:49;42.10;51.30
5683;DHT22;2864;49.220;8.654;2023-09-12T15:54:15;42.00;50.50
5683;DHT22;2864;49.220;8.654;2023-09-12T15:56:40;41.80;51.30
5683;DHT22;2864;49.220;8.654;2023-09-12T15:59:06;42.00;50.90
5683;DHT22;2864;49.220;8.654;2023-09-12T16:01:31;41.70;50.40
5683;DHT22;2864;49.220;8.654;2023-09-12T16:03:57;41.80;50.20
5683;DHT22;2864;49.220;8.654;2023-09-12T16:06:23;42.40;50.00
5683;DHT22;2864;49.220;8.654;2023-09-12T16:08:49;41.20;50.60
5683;DHT22;2864;49.220;8.654;2023-09-12T16:11:14;40.80;49.80
5683;DHT22;2864;49.220;8.654;2023-09-12T16:13:41;39.20;49.20
5683;DHT22;2864;49.220;8.654;2023-09-12T16:16:06;37.50;49.70
5683;DHT22;2864;49.220;8.654;2023-09-12T16:18:32;36.00;50.50
5683;DHT22;2864;49.220;8.654;2023-09-12T16:20:59;34.90;51.60